sensor_id;sensor_type;location;lat;lon;timestamp;pressure;altitude;pressure_sealevel;temperature;humidity
68654;BME280;55636;51.108;13.622;2023-03-19T00:00:12;100170.94;;;7.91;43.74
68654;BME280;55636;51.108;13.622;2023-03-19T00:01:14;100172.84;;;7.91;43.72
68654;BME280;55636;51.108;13.622;2023-03-19T00:02:18;100168.66;;;7.88;43.68
68654;BME280;55636;51.108;13.622;2023-03-19T00:03:20;100169.53;;;7.88;43.70
68654;BME280;55636;51.108;13.622;2023-03-19T00:04:24;100175.03;;;7.88;43.77
68654;BME280;55636;51.108;13.622;2023-03-19T00:05:26;100167.03;;;7.87;43.77
68654;BME280;55636;51.108;13.622;2023-03-19T00:06:29;100172.53;;;7.87;43.73
68654;BME280;55636;51.108;13.622;2023-03-19T00:07:31;100173.34;;;7.87;43.74
68654;BME280;55636;51.108;13.622;2023-03-19T00:08:33;100174.44;;;7.86;43.71
68654;BME280;55636;51.108;13.622;2023-03-19T00:09:36;100177.19;;;7.86;43.76
68654;BME280;55636;51.108;13.622;2023-03-19T00:10:38;100177.44;;;7.85;43.81
68654;BME280;55636;51.108;13.622;2023-03-19T00:11:40;100174.69;;;7.85;43.74
68654;BME280;55636;51.108;13.622;2023-03-19T00:12:43;100174.69;;;7.85;43.72
68654;BME280;55636;51.108;13.622;2023-03-19T00:13:45;100176.59;;;7.84;43.83
68654;BME280;55636;51.108;13.622;2023-03-19T00:14:47;100169.19;;;7.85;43.78
68654;BME280;55636;51.108;13.622;2023-03-19T00:15:51;100177.44;;;7.85;43.66
68654;BME280;55636;51.108;13.622;2023-03-19T00:16:54;100172.19;;;7.83;43.72
68654;BME280;55636;51.108;13.622;2023-03-19T00:17:56;100170.25;;;7.84;43.79
68654;BME280;55636;51.108;13.622;2023-03-19T00:18:58;100170.25;;;7.84;43.68
68654;BME280;55636;51.108;13.622;2023-03-19T00:20:01;100181.50;;;7.82;43.70
68654;BME280;55636;51.108;13.622;2023-03-19T00:21:03;100170.50;;;7.82;43.72
68654;BME280;55636;51.108;13.622;2023-03-19T00:22:06;100177.94;;;7.82;43.86
68654;BME280;55636;51.108;13.622;2023-03-19T00:23:09;100164.19;;;7.82;43.83
68654;BME280;55636;51.108;13.622;2023-03-19T00:24:11;100168.84;;;7.81;43.64
68654;BME280;55636;51.108;13.622;2023-03-19T00:25:14;100177.09;;;7.81;43.81
68654;BME280;55636;51.108;13.622;2023-03-19T00:26:16;100167.19;;;7.80;43.72
68654;BME280;55636;51.108;13.622;2023-03-19T00:27:19;100179.00;;;7.81;43.78
68654;BME280;55636;51.108;13.622;2023-03-19T00:28:22;100175.44;;;7.80;43.78
68654;BME280;55636;51.108;13.622;2023-03-19T00:29:24;100173.75;;;7.79;43.79
68654;BME280;55636;51.108;13.622;2023-03-19T00:30:26;100171.25;;;7.78;43.78
68654;BME280;55636;51.108;13.622;2023-03-19T00:31:29;100170.41;;;7.77;43.85
68654;BME280;55636;51.108;13.622;2023-03-19T00:32:31;100174.25;;;7.76;43.87
68654;BME280;55636;51.108;13.622;2023-03-19T00:33:35;100174.25;;;7.76;43.87
68654;BME280;55636;51.108;13.622;2023-03-19T00:34:37;100172.59;;;7.75;43.97
68654;BME280;55636;51.108;13.622;2023-03-19T00:35:40;100161.59;;;7.75;43.80
68654;BME280;55636;51.108;13.622;2023-03-19T00:36:43;100175.34;;;7.75;43.82
68654;BME280;55636;51.108;13.622;2023-03-19T00:37:46;100169.00;;;7.75;43.97
68654;BME280;55636;51.108;13.622;2023-03-19T00:38:48;100169.00;;;7.75;43.93
68654;BME280;55636;51.108;13.622;2023-03-19T00:39:50;100164.56;;;7.73;44.12
68654;BME280;55636;51.108;13.622;2023-03-19T00:40:52;100167.56;;;7.72;43.97
68654;BME280;55636;51.108;13.622;2023-03-19T00:41:55;100167.56;;;7.72;44.03
68654;BME280;55636;51.108;13.622;2023-03-19T00:42:57;100164.25;;;7.70;44.08
68654;BME280;55636;51.108;13.622;2023-03-19T00:43:59;100167.00;;;7.70;44.07
68654;BME280;55636;51.108;13.622;2023-03-19T00:45:04;100168.88;;;7.69;44.05
68654;BME280;55636;51.108;13.622;2023-03-19T00:46:07;100169.97;;;7.68;44.05
68654;BME280;55636;51.108;13.622;2023-03-19T00:47:09;100161.72;;;7.68;44.13
68654;BME280;55636;51.108;13.622;2023-03-19T00:48:12;100173.56;;;7.69;43.92
68654;BME280;55636;51.108;13.622;2023-03-19T00:49:14;100174.63;;;7.68;44.02
68654;BME280;55636;51.108;13.622;2023-03-19T00:50:16;100167.22;;;7.68;44.15
68654;BME280;55636;51.108;13.622;2023-03-19T00:51:18;100175.72;;;7.67;44.07
68654;BME280;55636;51.108;13.622;2023-03-19T00:52:20;100174.63;;;7.68;44.02
68654;BME280;55636;51.108;13.622;2023-03-19T00:53:24;100171.88;;;7.68;44.08
68654;BME280;55636;51.108;13.622;2023-03-19T00:54:27;100167.47;;;7.67;44.02
68654;BME280;55636;51.108;13.622;2023-03-19T00:55:29;100175.72;;;7.67;44.16
68654;BME280;55636;51.108;13.622;2023-03-19T00:56:31;100169.41;;;7.66;44.08
68654;BME280;55636;51.108;13.622;2023-03-19T00:57:33;100170.47;;;7.65;44.10
68654;BME280;55636;51.108;13.622;2023-03-19T00:58:36;100167.72;;;7.65;44.12
68654;BME280;55636;51.108;13.622;2023-03-19T00:59:42;100174.28;;;7.64;44.14
68654;BME280;55636;51.108;13.622;2023-03-19T01:00:44;100172.63;;;7.63;44.14
68654;BME280;55636;51.108;13.622;2023-03-19T01:01:48;100170.97;;;7.62;44.14
68654;BME280;55636;51.108;13.622;2023-03-19T01:02:50;100178.13;;;7.63;44.13
68654;BME280;55636;51.108;13.622;2023-03-19T01:03:52;100176.47;;;7.62;44.14
68654;BME280;55636;51.108;13.622;2023-03-19T01:04:56;100176.47;;;7.62;44.16
68654;BME280;55636;51.108;13.622;2023-03-19T01:05:59;100185.53;;;7.63;44.18
68654;BME280;55636;51.108;13.622;2023-03-19T01:07:01;100177.53;;;7.61;44.21
68654;BME280;55636;51.108;13.622;2023-03-19T01:08:03;100178.63;;;7.60;44.34
68654;BME280;55636;51.108;13.622;2023-03-19T01:09:06;100177.78;;;7.60;44.23
68654;BME280;55636;51.108;13.622;2023-03-19T01:10:09;100177.78;;;7.60;44.26
68654;BME280;55636;51.108;13.622;2023-03-19T01:11:13;100182.44;;;7.59;44.28
68654;BME280;55636;51.108;13.622;2023-03-19T01:12:16;100178.03;;;7.58;44.34
68654;BME280;55636;51.108;13.622;2023-03-19T01:13:20;100172.53;;;7.58;44.27
68654;BME280;55636;51.108;13.622;2023-03-19T01:14:23;100172.53;;;7.58;44.39
68654;BME280;55636;51.108;13.622;2023-03-19T01:15:25;100177.19;;;7.58;44.25
68654;BME280;55636;51.108;13.622;2023-03-19T01:16:28;100171.69;;;7.58;44.22
68654;BME280;55636;51.108;13.622;2023-03-19T01:17:30;100170.88;;;7.57;44.44
68654;BME280;55636;51.108;13.622;2023-03-19T01:18:33;100168.94;;;7.58;44.37
68654;BME280;55636;51.108;13.622;2023-03-19T01:19:35;100167.28;;;7.56;44.29
68654;BME280;55636;51.108;13.622;2023-03-19T01:20:39;100172.75;;;7.56;44.29
68654;BME280;55636;51.108;13.622;2023-03-19T01:21:42;100164.53;;;7.56;44.21
68654;BME280;55636;51.108;13.622;2023-03-19T01:22:50;100165.38;;;7.57;44.28
68654;BME280;55636;51.108;13.622;2023-03-19T01:23:54;100165.63;;;7.55;44.24
68654;BME280;55636;51.108;13.622;2023-03-19T01:24:58;100160.94;;;7.56;44.39
68654;BME280;55636;51.108;13.622;2023-03-19T01:26:02;100165.63;;;7.55;44.29
68654;BME280;55636;51.108;13.622;2023-03-19T01:27:04;100157.59;;;7.54;44.24
68654;BME280;55636;51.108;13.622;2023-03-19T01:28:09;100165.84;;;7.54;44.37
68654;BME280;55636;51.108;13.622;2023-03-19T01:29:13;100169.19;;;7.56;44.34
68654;BME280;55636;51.108;13.622;2023-03-19T01:30:16;100166.09;;;7.52;44.33
68654;BME280;55636;51.108;13.622;2023-03-19T01:31:44;100171.03;;;7.50;44.23
68654;BME280;55636;51.108;13.622;2023-03-19T01:33:10;100164.41;;;7.51;44.21
68654;BME280;55636;51.108;13.622;2023-03-19T01:34:28;100166.34;;;7.51;44.22
68654;BME280;55636;51.108;13.622;2023-03-19T01:35:36;100171.03;;;7.50;44.27
68654;BME280;55636;51.108;13.622;2023-03-19T01:36:39;100165.53;;;7.50;44.27
68654;BME280;55636;51.108;13.622;2023-03-19T01:37:42;100168.28;;;7.50;44.36
68654;BME280;55636;51.108;13.622;2023-03-19T01:38:45;100165.75;;;7.49;44.37
68654;BME280;55636;51.108;13.622;2023-03-19T01:39:49;100161.34;;;7.48;44.40
68654;BME280;55636;51.108;13.622;2023-03-19T01:40:52;100161.91;;;7.50;44.42
68654;BME280;55636;51.108;13.622;2023-03-19T01:41:54;100162.16;;;7.48;44.40
68654;BME280;55636;51.108;13.622;2023-03-19T01:43:28;100156.06;;;7.46;44.46
68654;BME280;55636;51.108;13.622;2023-03-19T01:44:49;100149.16;;;7.44;44.54
68654;BME280;55636;51.108;13.622;2023-03-19T01:46:26;100151.06;;;7.43;44.42
68654;BME280;55636;51.108;13.622;2023-03-19T01:47:48;100164.56;;;7.45;44.44
68654;BME280;55636;51.108;13.622;2023-03-19T01:49:04;100159.31;;;7.43;44.50
68654;BME280;55636;51.108;13.622;2023-03-19T01:50:20;100159.56;;;7.42;44.53
68654;BME280;55636;51.108;13.622;2023-03-19T01:51:52;100163.38;;;7.41;44.54
68654;BME280;55636;51.108;13.622;2023-03-19T01:53:14;100158.16;;;7.39;44.57
68654;BME280;55636;51.108;13.622;2023-03-19T01:54:24;100157.28;;;7.38;44.47
68654;BME280;55636;51.108;13.622;2023-03-19T01:55:39;100150.97;;;7.38;44.47
68654;BME280;55636;51.108;13.622;2023-03-19T01:57:02;100154.78;;;7.37;44.48
68654;BME280;55636;51.108;13.622;2023-03-19T01:58:25;100155.91;;;7.36;44.60
68654;BME280;55636;51.108;13.622;2023-03-19T01:59:43;100153.38;;;7.34;44.92
68654;BME280;55636;51.108;13.622;2023-03-19T02:01:13;100158.03;;;7.34;44.58
68654;BME280;55636;51.108;13.622;2023-03-19T02:02:24;100151.94;;;7.32;44.66
68654;BME280;55636;51.108;13.622;2023-03-19T02:03:29;100152.78;;;7.32;44.66
68654;BME280;55636;51.108;13.622;2023-03-19T02:04:46;100159.38;;;7.31;44.47
68654;BME280;55636;51.108;13.622;2023-03-19T02:05:50;100164.84;;;7.31;44.72
68654;BME280;55636;51.108;13.622;2023-03-19T02:06:56;100158.53;;;7.31;44.75
68654;BME280;55636;51.108;13.622;2023-03-19T02:08:02;100159.59;;;7.30;44.79
68654;BME280;55636;51.108;13.622;2023-03-19T02:09:06;100162.34;;;7.30;44.65
68654;BME280;55636;51.108;13.622;2023-03-19T02:10:12;100161.50;;;7.29;44.74
68654;BME280;55636;51.108;13.622;2023-03-19T02:11:17;100158.75;;;7.29;44.77
68654;BME280;55636;51.108;13.622;2023-03-19T02:12:19;100157.13;;;7.28;44.87
68654;BME280;55636;51.108;13.622;2023-03-19T02:13:22;100157.94;;;7.29;44.79
68654;BME280;55636;51.108;13.622;2023-03-19T02:14:25;100153.50;;;7.28;44.94
68654;BME280;55636;51.108;13.622;2023-03-19T02:15:27;100164.50;;;7.28;44.88
68654;BME280;55636;51.108;13.622;2023-03-19T02:16:30;100161.75;;;7.28;44.91
68654;BME280;55636;51.108;13.622;2023-03-19T02:17:32;100151.84;;;7.27;44.91
68654;BME280;55636;51.108;13.622;2023-03-19T02:18:35;100148.25;;;7.26;44.92
68654;BME280;55636;51.108;13.622;2023-03-19T02:19:45;100149.09;;;7.27;44.97
68654;BME280;55636;51.108;13.622;2023-03-19T02:21:06;100147.44;;;7.26;44.79
68654;BME280;55636;51.108;13.622;2023-03-19T02:22:09;100151.84;;;7.27;45.01
68654;BME280;55636;51.108;13.622;2023-03-19T02:23:21;100145.53;;;7.26;44.91
68654;BME280;55636;51.108;13.622;2023-03-19T02:24:34;100152.09;;;7.25;45.01
68654;BME280;55636;51.108;13.622;2023-03-19T02:26:50;100157.00;;;7.23;45.02
68654;BME280;55636;51.108;13.622;2023-03-19T02:27:53;100152.34;;;7.23;44.90
68654;BME280;55636;51.108;13.622;2023-03-19T02:28:55;100141.59;;;7.22;45.04
68654;BME280;55636;51.108;13.622;2023-03-19T02:30:24;100150.66;;;7.22;45.05
68654;BME280;55636;51.108;13.622;2023-03-19T02:31:27;100147.91;;;7.22;44.98
68654;BME280;55636;51.108;13.622;2023-03-19T02:32:30;100147.34;;;7.20;45.08
68654;BME280;55636;51.108;13.622;2023-03-19T02:33:32;100145.41;;;7.21;44.99
68654;BME280;55636;51.108;13.622;2023-03-19T02:34:37;100145.66;;;7.19;45.17
68654;BME280;55636;51.108;13.622;2023-03-19T02:35:41;100155.56;;;7.20;45.19
68654;BME280;55636;51.108;13.622;2023-03-19T02:36:48;100158.53;;;7.19;45.10
68654;BME280;55636;51.108;13.622;2023-03-19T02:37:52;100157.72;;;7.18;45.18
68654;BME280;55636;51.108;13.622;2023-03-19T02:38:56;100161.28;;;7.19;45.23
68654;BME280;55636;51.108;13.622;2023-03-19T02:40:26;100159.41;;;7.19;45.12
68654;BME280;55636;51.108;13.622;2023-03-19T02:41:31;100154.97;;;7.18;45.19
68654;BME280;55636;51.108;13.622;2023-03-19T02:42:34;100162.16;;;7.19;45.12
68654;BME280;55636;51.108;13.622;2023-03-19T02:43:38;100165.97;;;7.18;45.23
68654;BME280;55636;51.108;13.622;2023-03-19T02:44:42;100158.53;;;7.19;45.17
68654;BME280;55636;51.108;13.622;2023-03-19T02:45:44;100155.78;;;7.19;45.19
68654;BME280;55636;51.108;13.622;2023-03-19T02:46:48;100163.22;;;7.18;45.18
68654;BME280;55636;51.108;13.622;2023-03-19T02:47:50;100157.72;;;7.18;45.22
68654;BME280;55636;51.108;13.622;2023-03-19T02:48:53;100166.78;;;7.19;45.25
68654;BME280;55636;51.108;13.622;2023-03-19T02:49:55;100157.72;;;7.18;45.31
68654;BME280;55636;51.108;13.622;2023-03-19T02:50:58;100167.63;;;7.19;45.28
68654;BME280;55636;51.108;13.622;2023-03-19T02:52:00;100168.47;;;7.20;45.33
68654;BME280;55636;51.108;13.622;2023-03-19T02:53:02;100169.31;;;7.20;45.41
68654;BME280;55636;51.108;13.622;2023-03-19T02:54:05;100173.97;;;7.20;45.57
68654;BME280;55636;51.108;13.622;2023-03-19T02:55:07;100182.19;;;7.20;45.68
68654;BME280;55636;51.108;13.622;2023-03-19T02:56:12;100179.19;;;7.21;45.71
68654;BME280;55636;51.108;13.622;2023-03-19T02:57:14;100184.69;;;7.21;45.71
68654;BME280;55636;51.108;13.622;2023-03-19T02:58:17;100177.31;;;7.22;45.49
68654;BME280;55636;51.108;13.622;2023-03-19T02:59:20;100172.63;;;7.22;45.44
68654;BME280;55636;51.108;13.622;2023-03-19T03:00:22;100174.31;;;7.23;45.52
68654;BME280;55636;51.108;13.622;2023-03-19T03:01:25;100179.19;;;7.21;45.45
68654;BME280;55636;51.108;13.622;2023-03-19T03:02:27;100180.06;;;7.22;45.41
68654;BME280;55636;51.108;13.622;2023-03-19T03:03:30;100181.72;;;7.23;45.34
68654;BME280;55636;51.108;13.622;2023-03-19T03:04:33;100177.31;;;7.22;45.40
68654;BME280;55636;51.108;13.622;2023-03-19T03:05:36;100179.19;;;7.21;45.44
68654;BME280;55636;51.108;13.622;2023-03-19T03:06:38;100179.19;;;7.21;45.34
68654;BME280;55636;51.108;13.622;2023-03-19T03:07:40;100180.06;;;7.22;45.51
68654;BME280;55636;51.108;13.622;2023-03-19T03:08:44;100179.00;;;7.23;45.34
68654;BME280;55636;51.108;13.622;2023-03-19T03:09:47;100184.47;;;7.23;45.47
68654;BME280;55636;51.108;13.622;2023-03-19T03:10:49;100181.13;;;7.21;45.32
68654;BME280;55636;51.108;13.622;2023-03-19T03:11:52;100181.13;;;7.21;45.42
68654;BME280;55636;51.108;13.622;2023-03-19T03:12:54;100180.31;;;7.20;45.38
68654;BME280;55636;51.108;13.622;2023-03-19T03:13:57;100181.94;;;7.21;45.48
68654;BME280;55636;51.108;13.622;2023-03-19T03:15:01;100180.31;;;7.20;45.67
68654;BME280;55636;51.108;13.622;2023-03-19T03:16:04;100180.88;;;7.22;45.53
68654;BME280;55636;51.108;13.622;2023-03-19T03:17:06;100177.31;;;7.22;45.35
68654;BME280;55636;51.108;13.622;2023-03-19T03:18:09;100177.56;;;7.20;45.46
68654;BME280;55636;51.108;13.622;2023-03-19T03:19:12;100180.06;;;7.22;45.34
68654;BME280;55636;51.108;13.622;2023-03-19T03:20:16;100181.94;;;7.21;45.34
68654;BME280;55636;51.108;13.622;2023-03-19T03:21:18;100175.63;;;7.21;45.32
68654;BME280;55636;51.108;13.622;2023-03-19T03:22:23;100186.63;;;7.21;45.30
68654;BME280;55636;51.108;13.622;2023-03-19T03:23:26;100182.19;;;7.20;45.28
68654;BME280;55636;51.108;13.622;2023-03-19T03:24:28;100185.81;;;7.20;45.24
68654;BME280;55636;51.108;13.622;2023-03-19T03:25:30;100184.13;;;7.19;45.35
68654;BME280;55636;51.108;13.622;2023-03-19T03:26:33;100183.28;;;7.19;45.36
68654;BME280;55636;51.108;13.622;2023-03-19T03:27:37;100177.78;;;7.19;45.42
68654;BME280;55636;51.108;13.622;2023-03-19T03:28:39;100179.44;;;7.20;45.43
68654;BME280;55636;51.108;13.622;2023-03-19T03:29:42;100186.00;;;7.19;45.48
68654;BME280;55636;51.108;13.622;2023-03-19T03:30:45;100186.63;;;7.21;45.41
68654;BME280;55636;51.108;13.622;2023-03-19T03:31:48;100188.53;;;7.20;45.31
68654;BME280;55636;51.108;13.622;2023-03-19T03:32:50;100176.69;;;7.20;45.45
68654;BME280;55636;51.108;13.622;2023-03-19T03:33:52;100181.38;;;7.19;45.27
68654;BME280;55636;51.108;13.622;2023-03-19T03:34:55;100180.31;;;7.20;45.26
68654;BME280;55636;51.108;13.622;2023-03-19T03:35:57;100190.44;;;7.20;45.22
68654;BME280;55636;51.108;13.622;2023-03-19T03:37:00;100184.13;;;7.19;45.13
68654;BME280;55636;51.108;13.622;2023-03-19T03:38:02;100183.28;;;7.19;45.22
68654;BME280;55636;51.108;13.622;2023-03-19T03:39:05;100187.13;;;7.18;45.26
68654;BME280;55636;51.108;13.622;2023-03-19T03:40:08;100183.28;;;7.19;45.27
68654;BME280;55636;51.108;13.622;2023-03-19T03:41:10;100181.63;;;7.18;45.28
68654;BME280;55636;51.108;13.622;2023-03-19T03:42:13;100174.44;;;7.17;45.35
68654;BME280;55636;51.108;13.622;2023-03-19T03:43:15;100179.94;;;7.17;45.40
68654;BME280;55636;51.108;13.622;2023-03-19T03:44:19;100182.69;;;7.17;45.31
68654;BME280;55636;51.108;13.622;2023-03-19T03:45:22;100176.34;;;7.16;45.25
68654;BME280;55636;51.108;13.622;2023-03-19T03:46:25;100182.69;;;7.17;45.32
68654;BME280;55636;51.108;13.622;2023-03-19T03:47:28;100179.94;;;7.17;45.26
68654;BME280;55636;51.108;13.622;2023-03-19T03:48:30;100185.44;;;7.17;45.39
68654;BME280;55636;51.108;13.622;2023-03-19T03:49:32;100178.03;;;7.17;45.44
68654;BME280;55636;51.108;13.622;2023-03-19T03:50:35;100176.34;;;7.16;45.45
68654;BME280;55636;51.108;13.622;2023-03-19T03:51:43;100182.69;;;7.17;45.41
68654;BME280;55636;51.108;13.622;2023-03-19T03:52:45;100184.59;;;7.16;45.35
68654;BME280;55636;51.108;13.622;2023-03-19T03:53:48;100181.84;;;7.16;45.37
68654;BME280;55636;51.108;13.622;2023-03-19T03:54:52;100181.84;;;7.16;45.46
68654;BME280;55636;51.108;13.622;2023-03-19T03:55:55;100174.88;;;7.14;45.35
68654;BME280;55636;51.108;13.622;2023-03-19T03:56:59;100176.34;;;7.16;45.50
68654;BME280;55636;51.108;13.622;2023-03-19T03:58:05;100179.94;;;7.17;45.40
68654;BME280;55636;51.108;13.622;2023-03-19T03:59:07;100182.94;;;7.15;45.51
68654;BME280;55636;51.108;13.622;2023-03-19T04:00:11;100190.09;;;7.16;45.53
68654;BME280;55636;51.108;13.622;2023-03-19T04:01:18;100187.34;;;7.16;45.59
68654;BME280;55636;51.108;13.622;2023-03-19T04:02:26;100189.25;;;7.16;45.55
68654;BME280;55636;51.108;13.622;2023-03-19T04:03:29;100187.56;;;7.15;45.40
68654;BME280;55636;51.108;13.622;2023-03-19T04:04:31;100181.47;;;7.13;45.42
68654;BME280;55636;51.108;13.622;2023-03-19T04:05:35;100174.06;;;7.13;45.51
68654;BME280;55636;51.108;13.622;2023-03-19T04:06:39;100179.56;;;7.13;45.51
68654;BME280;55636;51.108;13.622;2023-03-19T04:08:03;100174.31;;;7.12;45.37
68654;BME280;55636;51.108;13.622;2023-03-19T04:09:05;100172.63;;;7.11;45.51
68654;BME280;55636;51.108;13.622;2023-03-19T04:10:10;100179.19;;;7.10;45.46
68654;BME280;55636;51.108;13.622;2023-03-19T04:11:13;100177.31;;;7.10;45.35
68654;BME280;55636;51.108;13.622;2023-03-19T04:12:16;100178.13;;;7.11;45.45
68654;BME280;55636;51.108;13.622;2023-03-19T04:13:18;100172.88;;;7.09;45.42
68654;BME280;55636;51.108;13.622;2023-03-19T04:14:20;100176.44;;;7.10;45.31
68654;BME280;55636;51.108;13.622;2023-03-19T04:15:23;100177.56;;;7.09;45.40
68654;BME280;55636;51.108;13.622;2023-03-19T04:16:28;100170.38;;;7.07;45.44
68654;BME280;55636;51.108;13.622;2023-03-19T04:17:31;100165.72;;;7.08;45.51
68654;BME280;55636;51.108;13.622;2023-03-19T04:18:33;100171.47;;;7.06;45.58
68654;BME280;55636;51.108;13.622;2023-03-19T04:19:36;100170.03;;;7.04;45.64
68654;BME280;55636;51.108;13.622;2023-03-19T04:20:38;100168.34;;;7.03;45.45
68654;BME280;55636;51.108;13.622;2023-03-19T04:21:42;100169.22;;;7.03;45.55
68654;BME280;55636;51.108;13.622;2023-03-19T04:22:45;100169.22;;;7.03;45.52
68654;BME280;55636;51.108;13.622;2023-03-19T04:23:48;100171.34;;;7.01;45.47
68654;BME280;55636;51.108;13.622;2023-03-19T04:24:51;100174.09;;;7.01;45.48
68654;BME280;55636;51.108;13.622;2023-03-19T04:26:01;100167.53;;;7.02;45.51
68654;BME280;55636;51.108;13.622;2023-03-19T04:27:06;100178.75;;;7.01;45.51
68654;BME280;55636;51.108;13.622;2023-03-19T04:28:09;100173.47;;;6.99;45.63
68654;BME280;55636;51.108;13.622;2023-03-19T04:29:12;100167.16;;;6.99;45.63
68654;BME280;55636;51.108;13.622;2023-03-19T04:30:14;100168.47;;;6.96;45.62
68654;BME280;55636;51.108;13.622;2023-03-19T04:31:17;100166.56;;;6.97;45.60
68654;BME280;55636;51.108;13.622;2023-03-19T04:32:20;100169.31;;;6.97;45.62
68654;BME280;55636;51.108;13.622;2023-03-19T04:33:22;100167.41;;;6.97;45.69
68654;BME280;55636;51.108;13.622;2023-03-19T04:34:26;100170.41;;;6.96;45.73
68654;BME280;55636;51.108;13.622;2023-03-19T04:35:28;100172.31;;;6.95;45.60
68654;BME280;55636;51.108;13.622;2023-03-19T04:36:31;100168.13;;;6.93;45.78
68654;BME280;55636;51.108;13.622;2023-03-19T04:37:33;100172.78;;;6.92;45.76
68654;BME280;55636;51.108;13.622;2023-03-19T04:38:36;100167.31;;;6.92;45.74
68654;BME280;55636;51.108;13.622;2023-03-19T04:39:39;100174.47;;;6.93;45.74
68654;BME280;55636;51.108;13.622;2023-03-19T04:40:43;100178.88;;;6.94;45.84
68654;BME280;55636;51.108;13.622;2023-03-19T04:41:47;100178.88;;;6.94;45.75
68654;BME280;55636;51.108;13.622;2023-03-19T04:43:04;100189.84;;;6.94;45.64
68654;BME280;55636;51.108;13.622;2023-03-19T04:44:08;100181.59;;;6.94;45.67
68654;BME280;55636;51.108;13.622;2023-03-19T04:45:15;100188.53;;;6.97;45.66
68654;BME280;55636;51.108;13.622;2023-03-19T04:46:18;100186.03;;;6.95;45.82
68654;BME280;55636;51.108;13.622;2023-03-19T04:47:22;100183.28;;;6.95;45.84
68654;BME280;55636;51.108;13.622;2023-03-19T04:48:32;100191.28;;;6.97;46.00
68654;BME280;55636;51.108;13.622;2023-03-19T04:49:36;100188.78;;;6.95;45.83
68654;BME280;55636;51.108;13.622;2023-03-19T04:50:39;100180.78;;;6.94;45.58
68654;BME280;55636;51.108;13.622;2023-03-19T04:51:42;100182.47;;;6.95;45.71
68654;BME280;55636;51.108;13.622;2023-03-19T04:52:46;100184.13;;;6.96;45.53
68654;BME280;55636;51.108;13.622;2023-03-19T04:53:49;100183.03;;;6.97;45.55
68654;BME280;55636;51.108;13.622;2023-03-19T04:54:51;100177.53;;;6.97;45.46
68654;BME280;55636;51.108;13.622;2023-03-19T04:55:54;100177.78;;;6.95;45.47
68654;BME280;55636;51.108;13.622;2023-03-19T04:56:57;100183.28;;;6.95;45.55
68654;BME280;55636;51.108;13.622;2023-03-19T04:58:04;100185.22;;;6.95;45.37
68654;BME280;55636;51.108;13.622;2023-03-19T04:59:09;100184.34;;;6.94;45.35
68654;BME280;55636;51.108;13.622;2023-03-19T05:00:11;100176.97;;;6.95;45.29
68654;BME280;55636;51.108;13.622;2023-03-19T05:01:17;100187.09;;;6.94;45.21
68654;BME280;55636;51.108;13.622;2023-03-19T05:02:46;100183.28;;;6.95;45.16
68654;BME280;55636;51.108;13.622;2023-03-19T05:03:49;100185.22;;;6.95;45.25
68654;BME280;55636;51.108;13.622;2023-03-19T05:04:52;100187.97;;;6.95;45.25
68654;BME280;55636;51.108;13.622;2023-03-19T05:05:54;100185.22;;;6.95;45.10
68654;BME280;55636;51.108;13.622;2023-03-19T05:06:57;100187.97;;;6.95;45.10
68654;BME280;55636;51.108;13.622;2023-03-19T05:08:00;100187.09;;;6.94;45.07
68654;BME280;55636;51.108;13.622;2023-03-19T05:09:03;100185.47;;;6.93;45.11
68654;BME280;55636;51.108;13.622;2023-03-19T05:10:07;100179.09;;;6.93;45.08
68654;BME280;55636;51.108;13.622;2023-03-19T05:11:10;100177.69;;;6.90;45.20
68654;BME280;55636;51.108;13.622;2023-03-19T05:12:29;100182.34;;;6.89;45.00
68654;BME280;55636;51.108;13.622;2023-03-19T05:13:32;100177.69;;;6.90;44.96
68654;BME280;55636;51.108;13.622;2023-03-19T05:14:34;100180.66;;;6.88;44.95
68654;BME280;55636;51.108;13.622;2023-03-19T05:15:45;100180.66;;;6.88;44.91
68654;BME280;55636;51.108;13.622;2023-03-19T05:16:48;100183.41;;;6.88;44.99
68654;BME280;55636;51.108;13.622;2023-03-19T05:17:50;100175.66;;;6.85;44.93
68654;BME280;55636;51.108;13.622;2023-03-19T05:18:55;100188.53;;;6.85;44.99
68654;BME280;55636;51.108;13.622;2023-03-19T05:19:59;100175.44;;;6.87;44.95
68654;BME280;55636;51.108;13.622;2023-03-19T05:21:01;100180.91;;;6.87;45.03
68654;BME280;55636;51.108;13.622;2023-03-19T05:22:05;100185.59;;;6.86;44.96
68654;BME280;55636;51.108;13.622;2023-03-19T05:23:08;100180.09;;;6.86;44.95
68654;BME280;55636;51.108;13.622;2023-03-19T05:24:18;100191.28;;;6.85;44.97
68654;BME280;55636;51.108;13.622;2023-03-19T05:25:21;100180.56;;;6.83;44.76
68654;BME280;55636;51.108;13.622;2023-03-19T05:26:23;100181.16;;;6.85;44.90
68654;BME280;55636;51.108;13.622;2023-03-19T05:27:52;100190.47;;;6.84;44.91
68654;BME280;55636;51.108;13.622;2023-03-19T05:28:57;100198.94;;;6.83;44.83
68654;BME280;55636;51.108;13.622;2023-03-19T05:30:09;100191.78;;;6.82;44.88
68654;BME280;55636;51.108;13.622;2023-03-19T05:31:24;100187.59;;;6.79;44.93
68654;BME280;55636;51.108;13.622;2023-03-19T05:32:28;100193.91;;;6.80;44.96
68654;BME280;55636;51.108;13.622;2023-03-19T05:33:31;100185.09;;;6.78;44.91
68654;BME280;55636;51.108;13.622;2023-03-19T05:34:35;100190.59;;;6.78;45.06
68654;BME280;55636;51.108;13.622;2023-03-19T05:35:37;100192.72;;;6.76;45.06
68654;BME280;55636;51.108;13.622;2023-03-19T05:36:46;100187.25;;;6.76;45.06
68654;BME280;55636;51.108;13.622;2023-03-19T05:37:52;100194.41;;;6.77;44.97
68654;BME280;55636;51.108;13.622;2023-03-19T05:38:57;100193.59;;;6.76;45.00
68654;BME280;55636;51.108;13.622;2023-03-19T05:40:08;100191.06;;;6.74;45.22
68654;BME280;55636;51.108;13.622;2023-03-19T05:41:11;100193.81;;;6.74;44.95